Anaconda (3U3)
Anaconda, MT
Field Elevation: 5030
Lat: 46°09.19N  Long: 112°52.07W
CTAF/Unicom Freq: 122.8000
   
    
Weather Advisories
2018-05-25   22:19 Z
Altimeter 29.90" Hg
Wind 130° @ 12 KT
Gusts 22 KT
Temperature 25° C (77° F)
Dewpoint 6° C (43° F)
Relative Humidity 30%
Density Altitude 7,300 feet
Condensation Altitude 14,500 feet
Wind and Runways
Indicated Runway = 16
Headwind = 10 kt
Crosswind = 6 kt
History
 
 
 
More Info
NOAA Forecast
 
 
About Us
Belfort Instrument
 
 
FAA Disclaimer: The data displayed is for advisory purposes only and is not to be used for flight planning or operations. For official data, please call (not available) to hear the current automated AWOS voice message.
  METAR 3U3 252219Z AUTO 13012G22KT 25/06 A2990